Time;durP1;ratioP1;P1;durP2;ratioP2;P2;SDS_P1;SDS_P2;PMS_P1;PMS_P2;Temp;Humidity;BMP_temperature;BMP_pressure;BME280_temperature;BME280_humidity;BME280_pressure;Samples;Min_cycle;Max_cycle;Signal;HPM_P1;HPM_P2
2023/09/06 00:02:07;;;;;;;;;;;18.20;99.90;;;;;;4934314;28;20556;-64
2023/09/06 00:04:33;;;;;;;;;;;18.20;99.90;;;;;;4934283;28;20504;-65
2023/09/06 00:06:59;;;;;;;;;;;18.10;99.90;;;;;;4936990;28;19926;-64
2023/09/06 00:09:24;;;;;;;;;;;18.20;99.90;;;;;;4920061;28;19953;-65
2023/09/06 00:11:50;;;;;;;;;;;18.30;99.90;;;;;;4935377;28;19941;-65
2023/09/06 00:14:15;;;;;;;;;;;18.10;99.90;;;;;;4917090;28;19922;-64
2023/09/06 00:16:41;;;;;;;;;;;18.10;99.90;;;;;;4934185;28;19930;-65
2023/09/06 00:19:07;;;;;;;;;;;18.10;99.90;;;;;;4917270;28;19929;-64
2023/09/06 00:21:36;;;;;;;;;;;18.10;99.90;;;;;;4932243;28;20101;-65
2023/09/06 00:24:02;;;;;;;;;;;18.20;99.90;;;;;;4933898;28;20353;-65
2023/09/06 00:26:27;;;;;;;;;;;18.20;99.90;;;;;;4934760;28;19926;-65
2023/09/06 00:28:54;;;;;;;;;;;18.30;99.90;;;;;;4932578;28;20025;-64
2023/09/06 00:31:20;;;;;;;;;;;18.40;99.90;;;;;;4933100;28;19922;-64
2023/09/06 00:33:45;;;;;;;;;;;18.40;99.90;;;;;;4934470;28;19923;-62
2023/09/06 00:36:11;;;;;;;;;;;18.20;99.90;;;;;;4933417;28;20309;-63
2023/09/06 00:38:38;;;;;;;;;;;18.20;99.90;;;;;;4933516;28;20193;-64
2023/09/06 00:41:04;;;;;;;;;;;18.10;99.90;;;;;;4933093;28;20421;-64
2023/09/06 00:43:30;;;;;;;;;;;18.20;99.90;;;;;;4934500;28;20081;-64
2023/09/06 00:45:56;;;;;;;;;;;18.30;99.90;;;;;;4932866;28;19986;-64
2023/09/06 00:48:22;;;;;;;;;;;18.40;99.90;;;;;;4917131;28;20079;-64
2023/09/06 00:50:53;;;;;;;;;;;18.30;99.90;;;;;;4935160;28;20447;-65
2023/09/06 00:53:20;;;;;;;;;;;18.30;99.90;;;;;;4933228;28;20408;-64
2023/09/06 00:55:48;;;;;;;;;;;18.40;99.90;;;;;;4916915;28;19926;-65
2023/09/06 00:58:17;;;;;;;;;;;18.20;99.90;;;;;;4933334;28;20286;-64
2023/09/06 01:00:43;;;;;;;;;;;18.30;99.90;;;;;;4934668;28;19927;-64
2023/09/06 01:03:09;;;;;;;;;;;18.30;99.90;;;;;;4932798;28;19929;-64
2023/09/06 01:05:41;;;;;;;;;;;18.20;99.90;;;;;;4961106;28;19917;-64
2023/09/06 01:08:10;;;;;;;;;;;18.20;99.90;;;;;;4932774;28;19927;-64
2023/09/06 01:10:35;;;;;;;;;;;18.30;99.90;;;;;;4935199;28;20519;-64
2023/09/06 01:13:01;;;;;;;;;;;18.30;99.90;;;;;;4940018;28;20849;-64
2023/09/06 01:15:27;;;;;;;;;;;18.30;99.90;;;;;;4932310;28;19926;-64
2023/09/06 01:17:54;;;;;;;;;;;18.20;99.90;;;;;;4932936;28;19922;-64
2023/09/06 01:20:38;;;;;;;;;;;18.20;99.90;;;;;;4932766;28;20292;-66
2023/09/06 01:23:27;;;;;;;;;;;18.10;99.90;;;;;;4932510;28;19926;-66
2023/09/06 01:25:53;;;;;;;;;;;18.30;99.90;;;;;;4916241;28;19921;-65
2023/09/06 01:28:19;;;;;;;;;;;18.30;99.90;;;;;;4952788;28;20506;-65
2023/09/06 01:30:44;;;;;;;;;;;18.40;99.90;;;;;;4931750;28;19922;-65
2023/09/06 01:33:10;;;;;;;;;;;18.50;99.90;;;;;;4948067;28;20505;-66
2023/09/06 01:35:36;;;;;;;;;;;18.50;99.90;;;;;;4931910;28;20088;-66
2023/09/06 01:38:01;;;;;;;;;;;18.30;99.90;;;;;;4932248;28;19967;-66
2023/09/06 01:40:27;;;;;;;;;;;18.30;99.90;;;;;;4948851;28;20120;-65
2023/09/06 01:42:53;;;;;;;;;;;18.30;99.90;;;;;;4932263;28;20632;-66
2023/09/06 01:45:19;;;;;;;;;;;18.50;99.90;;;;;;4932174;28;19969;-66
2023/09/06 01:47:46;;;;;;;;;;;18.40;99.90;;;;;;4932675;28;20013;-65
2023/09/06 01:50:12;;;;;;;;;;;18.50;99.90;;;;;;4931287;28;20214;-65
2023/09/06 01:52:40;;;;;;;;;;;18.60;99.90;;;;;;4900569;28;19926;-65
2023/09/06 01:55:07;;;;;;;;;;;18.60;99.90;;;;;;4950364;28;20021;-65
2023/09/06 01:57:32;;;;;;;;;;;18.80;99.90;;;;;;4932113;28;19927;-65
2023/09/06 01:59:58;;;;;;;;;;;18.70;99.90;;;;;;4933391;28;20286;-65
2023/09/06 02:02:23;;;;;;;;;;;18.70;99.90;;;;;;4932189;28;19926;-65
2023/09/06 02:04:49;;;;;;;;;;;18.60;99.90;;;;;;4933022;28;20025;-65
2023/09/06 02:07:15;;;;;;;;;;;18.90;99.90;;;;;;4934233;28;19938;-65
2023/09/06 02:09:40;;;;;;;;;;;18.80;99.90;;;;;;4918455;28;20307;-66
2023/09/06 02:12:06;;;;;;;;;;;18.80;99.90;;;;;;4932071;28;19922;-66
2023/09/06 02:14:32;;;;;;;;;;;18.60;99.90;;;;;;4933249;28;20296;-65
2023/09/06 02:16:57;;;;;;;;;;;18.90;99.90;;;;;;4947876;28;20265;-65
2023/09/06 02:19:23;;;;;;;;;;;18.90;99.90;;;;;;4900566;28;19926;-65
2023/09/06 02:21:49;;;;;;;;;;;19.00;99.90;;;;;;4913928;28;19922;-65
2023/09/06 02:24:14;;;;;;;;;;;18.80;99.90;;;;;;4933198;28;20210;-66
2023/09/06 02:26:40;;;;;;;;;;;19.10;99.90;;;;;;4932125;28;19922;-66
2023/09/06 02:29:05;;;;;;;;;;;19.00;99.90;;;;;;4931592;28;20552;-66
2023/09/06 02:31:31;;;;;;;;;;;19.20;99.90;;;;;;4931856;28;19929;-66
2023/09/06 02:33:57;;;;;;;;;;;19.10;99.90;;;;;;4932514;28;20428;-65
2023/09/06 02:36:22;;;;;;;;;;;19.00;99.90;;;;;;4935523;28;20190;-66
2023/09/06 02:38:48;;;;;;;;;;;18.90;99.90;;;;;;4934485;28;20445;-65
2023/09/06 02:41:14;;;;;;;;;;;19.00;99.90;;;;;;4944460;28;20115;-65
2023/09/06 02:43:39;;;;;;;;;;;18.90;99.90;;;;;;4937047;28;19988;-65
2023/09/06 02:46:05;;;;;;;;;;;19.00;99.90;;;;;;4957982;28;19923;-66
2023/09/06 02:48:33;;;;;;;;;;;18.90;99.90;;;;;;4939203;28;19922;-65
2023/09/06 02:50:59;;;;;;;;;;;18.70;99.90;;;;;;4951701;28;20454;-65
2023/09/06 02:53:26;;;;;;;;;;;18.60;99.90;;;;;;4919719;28;19970;-65
2023/09/06 02:55:52;;;;;;;;;;;18.60;99.90;;;;;;4940456;28;20203;-66
2023/09/06 02:58:20;;;;;;;;;;;18.70;99.90;;;;;;4936913;28;20419;-66
2023/09/06 03:00:49;;;;;;;;;;;18.40;99.90;;;;;;4936163;28;19926;-66
2023/09/06 03:03:16;;;;;;;;;;;18.70;99.90;;;;;;4935585;28;20369;-66
2023/09/06 03:05:42;;;;;;;;;;;18.60;99.90;;;;;;4935373;28;20064;-66
2023/09/06 03:08:12;;;;;;;;;;;18.80;99.90;;;;;;4935288;28;19934;-66
2023/09/06 03:10:41;;;;;;;;;;;18.80;99.90;;;;;;4935134;28;20071;-65
2023/09/06 03:13:08;;;;;;;;;;;18.90;99.90;;;;;;4934425;28;20003;-65
2023/09/06 03:15:34;;;;;;;;;;;18.60;99.90;;;;;;4934476;28;20737;-65
2023/09/06 03:18:01;;;;;;;;;;;18.80;99.90;;;;;;4921198;28;19922;-65
2023/09/06 03:21:04;;;;;;;;;;;18.70;99.90;;;;;;4935305;28;19948;-65
2023/09/06 03:23:20;;;;;;;;;;;18.70;99.90;;;;;;4931377;28;20020;-65
2023/09/06 03:25:50;;;;;;;;;;;19.00;99.90;;;;;;4935094;28;19977;-65
2023/09/06 03:28:20;;;;;;;;;;;18.90;99.90;;;;;;4934162;28;20036;-65
2023/09/06 03:30:46;;;;;;;;;;;18.60;99.90;;;;;;4957561;28;20594;-65
2023/09/06 03:33:12;;;;;;;;;;;18.80;99.90;;;;;;4933902;28;19930;-65
2023/09/06 03:35:37;;;;;;;;;;;18.70;99.90;;;;;;4918168;28;19930;-65
2023/09/06 03:38:06;;;;;;;;;;;18.50;99.90;;;;;;4933991;28;19929;-65
2023/09/06 03:40:35;;;;;;;;;;;18.60;99.90;;;;;;4934806;28;20377;-65
2023/09/06 03:43:05;;;;;;;;;;;18.40;99.90;;;;;;4935571;28;19934;-65
2023/09/06 03:45:31;;;;;;;;;;;18.40;99.90;;;;;;4935531;28;19933;-65
2023/09/06 03:47:57;;;;;;;;;;;18.30;99.90;;;;;;4935184;28;19977;-65
2023/09/06 03:50:23;;;;;;;;;;;18.50;99.90;;;;;;4917389;28;19922;-65
2023/09/06 03:52:50;;;;;;;;;;;18.20;99.90;;;;;;4933762;28;20329;-64
2023/09/06 03:55:16;;;;;;;;;;;18.40;99.90;;;;;;4935473;28;19978;-65
2023/09/06 03:57:42;;;;;;;;;;;18.10;99.90;;;;;;4939169;28;19926;-65
2023/09/06 04:00:24;;;;;;;;;;;18.30;99.90;;;;;;4935482;28;19927;-65
2023/09/06 04:02:56;;;;;;;;;;;18.00;99.90;;;;;;4919315;28;19926;-65
2023/09/06 04:05:25;;;;;;;;;;;18.10;99.90;;;;;;4933602;28;20059;-66
2023/09/06 04:07:58;;;;;;;;;;;18.00;99.90;;;;;;4935364;28;20547;-66
2023/09/06 04:10:24;;;;;;;;;;;18.20;99.90;;;;;;4938074;28;20006;-65
2023/09/06 04:12:50;;;;;;;;;;;18.00;99.90;;;;;;4933444;28;19977;-65
2023/09/06 04:15:21;;;;;;;;;;;18.00;99.90;;;;;;4933425;28;19986;-66
2023/09/06 04:17:57;;;;;;;;;;;18.10;99.90;;;;;;4933669;28;19930;-65
2023/09/06 04:20:35;;;;;;;;;;;18.10;99.90;;;;;;4938808;28;19966;-65
2023/09/06 04:23:04;;;;;;;;;;;17.90;99.90;;;;;;4933001;28;20146;-66
2023/09/06 04:25:29;;;;;;;;;;;17.90;99.90;;;;;;4934302;28;20018;-66
2023/09/06 04:27:55;;;;;;;;;;;18.00;99.90;;;;;;4934736;28;19922;-66
2023/09/06 04:30:25;;;;;;;;;;;18.00;99.90;;;;;;4935553;28;20319;-66
2023/09/06 04:32:51;;;;;;;;;;;17.70;99.90;;;;;;4933132;28;20009;-65
2023/09/06 04:35:17;;;;;;;;;;;17.60;99.90;;;;;;4933249;28;19919;-65
2023/09/06 04:37:43;;;;;;;;;;;17.80;99.90;;;;;;4918592;28;20640;-65
2023/09/06 04:40:12;;;;;;;;;;;17.60;99.90;;;;;;4934219;28;20443;-66
2023/09/06 04:42:39;;;;;;;;;;;17.70;99.90;;;;;;4934784;28;19973;-66
2023/09/06 04:45:05;;;;;;;;;;;17.70;99.90;;;;;;4933233;28;20005;-66
2023/09/06 04:47:31;;;;;;;;;;;17.70;99.90;;;;;;4933072;28;20365;-66
2023/09/06 04:49:57;;;;;;;;;;;17.60;99.90;;;;;;4934003;28;20214;-66
2023/09/06 04:52:22;;;;;;;;;;;17.50;99.90;;;;;;4934841;28;19952;-64
2023/09/06 04:54:48;;;;;;;;;;;17.50;99.90;;;;;;4933236;28;20017;-65
2023/09/06 04:57:16;;;;;;;;;;;17.60;99.90;;;;;;4933851;28;20062;-65
2023/09/06 04:59:42;;;;;;;;;;;17.60;99.90;;;;;;4932976;28;19922;-65
2023/09/06 05:02:08;;;;;;;;;;;17.40;99.90;;;;;;4948472;28;19922;-65
2023/09/06 05:04:34;;;;;;;;;;;17.30;99.90;;;;;;4934649;28;20004;-65
2023/09/06 05:07:00;;;;;;;;;;;17.20;99.90;;;;;;4936607;28;19929;-65
2023/09/06 05:09:25;;;;;;;;;;;17.30;99.90;;;;;;4916461;28;19922;-64
2023/09/06 05:11:51;;;;;;;;;;;17.30;99.90;;;;;;4948868;28;20034;-65
2023/09/06 05:14:17;;;;;;;;;;;17.40;99.90;;;;;;4932685;28;20289;-65
2023/09/06 05:16:42;;;;;;;;;;;17.40;99.90;;;;;;4934347;28;19922;-65
2023/09/06 05:19:08;;;;;;;;;;;17.30;99.90;;;;;;4933907;28;19922;-65
2023/09/06 05:21:35;;;;;;;;;;;17.40;99.90;;;;;;4933690;28;19922;-65
2023/09/06 05:24:00;;;;;;;;;;;17.50;99.90;;;;;;4932761;28;20545;-65
2023/09/06 05:26:26;;;;;;;;;;;17.40;99.90;;;;;;4955853;28;19923;-65
2023/09/06 05:28:51;;;;;;;;;;;17.60;99.90;;;;;;4931963;28;20296;-65
2023/09/06 05:31:18;;;;;;;;;;;17.50;99.90;;;;;;4935101;28;19999;-66
2023/09/06 05:33:44;;;;;;;;;;;17.60;99.90;;;;;;4933088;28;19923;-65
2023/09/06 05:36:09;;;;;;;;;;;17.60;99.90;;;;;;4934766;28;20000;-65
2023/09/06 05:38:35;;;;;;;;;;;17.60;99.90;;;;;;4932988;28;19922;-66
2023/09/06 05:41:00;;;;;;;;;;;17.80;99.90;;;;;;4933948;28;20178;-66
2023/09/06 05:43:26;;;;;;;;;;;17.80;99.90;;;;;;4932765;28;20117;-66
2023/09/06 05:45:52;;;;;;;;;;;17.90;99.90;;;;;;4937091;28;19929;-66
2023/09/06 05:48:18;;;;;;;;;;;17.90;99.90;;;;;;4934875;28;20021;-66
2023/09/06 05:50:44;;;;;;;;;;;18.00;99.90;;;;;;4930418;28;19926;-66
2023/09/06 05:53:09;;;;;;;;;;;18.30;99.90;;;;;;4931908;28;20016;-66
2023/09/06 05:55:35;;;;;;;;;;;18.70;99.90;;;;;;4949848;28;20598;-66
2023/09/06 05:58:00;;;;;;;;;;;19.20;99.90;;;;;;4916538;28;19929;-66
2023/09/06 06:00:28;;;;;;;;;;;19.70;99.90;;;;;;4931119;28;19926;-65
2023/09/06 06:02:59;;;;;;;;;;;20.10;99.90;;;;;;4930674;28;19931;-66
2023/09/06 06:05:24;;;;;;;;;;;20.30;99.90;;;;;;4930472;28;19929;-65
2023/09/06 06:07:51;;;;;;;;;;;20.70;99.90;;;;;;4933310;28;19922;-66
2023/09/06 06:10:17;;;;;;;;;;;20.90;99.90;;;;;;4933018;28;20238;-66
2023/09/06 06:12:43;;;;;;;;;;;21.20;99.90;;;;;;4934451;28;20560;-65
2023/09/06 06:15:09;;;;;;;;;;;21.40;99.90;;;;;;4939342;28;19922;-66
2023/09/06 06:17:35;;;;;;;;;;;21.70;99.90;;;;;;4937291;28;19923;-66
2023/09/06 06:20:01;;;;;;;;;;;21.90;99.90;;;;;;4936089;28;19923;-65
2023/09/06 06:22:27;;;;;;;;;;;22.10;99.90;;;;;;4920008;28;19926;-66
2023/09/06 06:24:52;;;;;;;;;;;22.30;99.90;;;;;;4920304;28;19969;-65
2023/09/06 06:27:18;;;;;;;;;;;22.50;99.90;;;;;;4936359;28;20025;-65
2023/09/06 06:29:44;;;;;;;;;;;22.70;99.90;;;;;;4918974;28;19936;-66
2023/09/06 06:32:09;;;;;;;;;;;22.80;99.90;;;;;;4934589;28;19973;-66
2023/09/06 06:34:39;;;;;;;;;;;23.00;99.90;;;;;;4934071;28;20013;-65
2023/09/06 06:37:05;;;;;;;;;;;23.10;99.90;;;;;;4936254;28;19989;-66
2023/09/06 06:39:31;;;;;;;;;;;23.30;99.90;;;;;;4934809;28;20305;-65
2023/09/06 06:41:56;;;;;;;;;;;23.30;99.90;;;;;;4936415;28;19922;-65
2023/09/06 06:44:22;;;;;;;;;;;23.30;99.90;;;;;;4938486;28;20437;-65
2023/09/06 06:46:48;;;;;;;;;;;23.40;99.90;;;;;;4934550;28;19933;-66
2023/09/06 06:49:15;;;;;;;;;;;23.50;99.90;;;;;;4933947;28;19922;-66
2023/09/06 06:51:40;;;;;;;;;;;23.90;99.90;;;;;;4933609;28;19933;-66
2023/09/06 06:54:07;;;;;;;;;;;24.00;99.90;;;;;;4950632;28;19922;-65
2023/09/06 06:56:33;;;;;;;;;;;24.10;99.90;;;;;;4936149;28;20324;-65
2023/09/06 06:58:59;;;;;;;;;;;24.00;99.90;;;;;;4936520;28;19922;-65
2023/09/06 07:01:27;;;;;;;;;;;24.10;99.90;;;;;;4926766;28;19922;-66
2023/09/06 07:03:53;;;;;;;;;;;24.50;99.90;;;;;;4936986;28;19934;-65
2023/09/06 07:06:18;;;;;;;;;;;24.50;99.90;;;;;;4936635;28;19926;-65
2023/09/06 07:08:44;;;;;;;;;;;24.70;99.90;;;;;;4933988;28;20309;-66
2023/09/06 07:11:11;;;;;;;;;;;25.00;99.90;;;;;;4934584;28;19922;-66
2023/09/06 07:13:37;;;;;;;;;;;25.10;99.90;;;;;;4934912;28;19926;-67
2023/09/06 07:16:03;;;;;;;;;;;25.10;59.20;;;;;;4934983;28;20179;-67
2023/09/06 07:18:29;;;;;;;;;;;25.10;99.90;;;;;;4935202;28;19945;-67
2023/09/06 07:20:54;;;;;;;;;;;25.10;99.90;;;;;;4933643;28;20012;-65
2023/09/06 07:23:20;;;;;;;;;;;25.20;71.10;;;;;;4935496;28;20411;-65
2023/09/06 07:25:46;;;;;;;;;;;25.40;70.20;;;;;;4932596;28;19929;-66
2023/09/06 07:28:15;;;;;;;;;;;25.60;86.60;;;;;;4917922;28;19933;-66
2023/09/06 07:30:44;;;;;;;;;;;25.80;48.80;;;;;;4937589;28;20392;-66
2023/09/06 07:33:09;;;;;;;;;;;26.10;64.00;;;;;;4933862;28;21740;-65
2023/09/06 07:35:35;;;;;;;;;;;26.10;32.40;;;;;;4934858;28;19944;-66
2023/09/06 07:38:00;;;;;;;;;;;26.40;40.10;;;;;;4933385;28;20215;-65
2023/09/06 07:40:26;;;;;;;;;;;26.60;15.90;;;;;;4935301;28;19922;-66
2023/09/06 07:42:52;;;;;;;;;;;26.60;8.60;;;;;;4933656;28;19933;-66
2023/09/06 07:45:18;;;;;;;;;;;26.90;13.30;;;;;;4953701;28;20025;-66
2023/09/06 07:47:44;;;;;;;;;;;27.10;44.30;;;;;;4949260;28;20269;-66
2023/09/06 07:50:09;;;;;;;;;;;27.00;1.00;;;;;;4932912;28;19922;-65
2023/09/06 07:52:36;;;;;;;;;;;27.20;8.10;;;;;;4937065;28;20484;-65
2023/09/06 07:55:02;;;;;;;;;;;27.40;1.00;;;;;;4932754;28;19977;-65
2023/09/06 07:57:28;;;;;;;;;;;27.60;6.60;;;;;;4918754;28;19926;-67
2023/09/06 07:59:54;;;;;;;;;;;27.70;1.00;;;;;;4933996;28;19930;-65
2023/09/06 08:02:19;;;;;;;;;;;27.80;1.00;;;;;;4933037;28;20355;-66
2023/09/06 08:04:45;;;;;;;;;;;28.00;1.00;;;;;;4932651;28;19922;-66
2023/09/06 08:07:10;;;;;;;;;;;28.00;1.00;;;;;;4934232;28;19945;-66
2023/09/06 08:09:38;;;;;;;;;;;28.20;1.00;;;;;;4933723;28;19930;-65
2023/09/06 08:12:05;;;;;;;;;;;28.50;1.00;;;;;;4936845;28;19934;-64
2023/09/06 08:14:31;;;;;;;;;;;28.50;1.00;;;;;;4937513;28;20044;-65
2023/09/06 08:16:56;;;;;;;;;;;28.40;1.00;;;;;;4935688;28;20448;-65
2023/09/06 08:19:22;;;;;;;;;;;28.50;1.00;;;;;;4937097;28;19922;-66
2023/09/06 08:21:47;;;;;;;;;;;28.60;1.00;;;;;;4941576;28;19977;-64
2023/09/06 08:24:13;;;;;;;;;;;28.70;1.00;;;;;;4919216;28;19926;-65
2023/09/06 08:26:39;;;;;;;;;;;28.60;1.00;;;;;;4938500;28;19922;-65
2023/09/06 08:29:05;;;;;;;;;;;29.00;1.00;;;;;;4936797;28;20768;-64
2023/09/06 08:31:32;;;;;;;;;;;29.20;1.00;;;;;;4924447;28;19968;-65
2023/09/06 08:33:58;;;;;;;;;;;29.20;1.00;;;;;;4934495;28;20222;-64
2023/09/06 08:36:23;;;;;;;;;;;29.10;1.00;;;;;;4935663;28;21052;-65
2023/09/06 08:38:49;;;;;;;;;;;28.70;1.00;;;;;;4934736;28;19918;-65
2023/09/06 08:41:15;;;;;;;;;;;28.90;1.00;;;;;;4934788;28;19929;-66
2023/09/06 08:43:42;;;;;;;;;;;29.10;1.00;;;;;;4933452;28;20040;-65
2023/09/06 08:46:18;;;;;;;;;;;29.20;1.00;;;;;;4934397;28;19930;-64
2023/09/06 08:48:44;;;;;;;;;;;29.40;1.00;;;;;;4934677;28;19976;-64
2023/09/06 08:51:11;;;;;;;;;;;29.30;1.00;;;;;;4949465;28;19922;-65
2023/09/06 08:53:39;;;;;;;;;;;29.40;1.00;;;;;;4934714;28;19926;-65
2023/09/06 08:56:05;;;;;;;;;;;29.60;1.00;;;;;;4917654;28;20044;-66
2023/09/06 08:58:31;;;;;;;;;;;29.50;1.00;;;;;;4949569;28;19964;-64
2023/09/06 09:00:57;;;;;;;;;;;29.90;1.00;;;;;;4919200;28;20623;-64
2023/09/06 09:03:22;;;;;;;;;;;30.10;1.00;;;;;;4934333;28;20009;-65
2023/09/06 09:05:48;;;;;;;;;;;30.30;1.00;;;;;;4932193;28;20370;-66
2023/09/06 09:08:13;;;;;;;;;;;30.30;1.00;;;;;;4933585;28;19922;-65
2023/09/06 09:10:39;;;;;;;;;;;30.30;1.00;;;;;;4917194;28;20455;-65
2023/09/06 09:13:09;;;;;;;;;;;30.20;1.00;;;;;;4933510;28;19951;-66
2023/09/06 09:15:36;;;;;;;;;;;30.20;1.00;;;;;;4935520;28;20424;-65
2023/09/06 09:18:11;;;;;;;;;;;30.00;1.00;;;;;;4932644;28;19922;-66
2023/09/06 09:20:38;;;;;;;;;;;30.10;1.00;;;;;;4917315;28;19933;-66
2023/09/06 09:23:04;;;;;;;;;;;29.80;1.00;;;;;;4916582;28;19926;-66
2023/09/06 09:25:30;;;;;;;;;;;29.80;1.00;;;;;;4932609;28;20111;-65
2023/09/06 09:27:57;;;;;;;;;;;30.10;1.00;;;;;;4934327;28;19922;-65
2023/09/06 09:30:23;;;;;;;;;;;30.10;1.00;;;;;;4933920;28;19934;-64
2023/09/06 09:32:55;;;;;;;;;;;30.20;1.00;;;;;;4934344;28;19929;-64
2023/09/06 09:35:21;;;;;;;;;;;30.40;1.00;;;;;;4917250;28;20409;-65
2023/09/06 09:37:50;;;;;;;;;;;30.60;1.00;;;;;;4948466;28;19969;-65
2023/09/06 09:40:16;;;;;;;;;;;30.40;1.00;;;;;;4934543;28;20001;-65
2023/09/06 09:42:50;;;;;;;;;;;30.80;1.00;;;;;;4933490;28;20389;-66
2023/09/06 09:45:16;;;;;;;;;;;30.90;1.00;;;;;;4932991;28;20077;-64
2023/09/06 09:47:42;;;;;;;;;;;31.10;1.00;;;;;;4932353;28;20428;-66
2023/09/06 09:50:09;;;;;;;;;;;31.40;1.00;;;;;;4932806;28;19926;-66
2023/09/06 09:52:36;;;;;;;;;;;31.50;1.00;;;;;;4935258;28;20218;-67
2023/09/06 09:55:02;;;;;;;;;;;31.70;1.00;;;;;;4932020;28;19928;-67
2023/09/06 09:57:29;;;;;;;;;;;31.80;1.00;;;;;;4932175;28;20357;-65
2023/09/06 09:59:55;;;;;;;;;;;31.30;1.00;;;;;;4934648;28;20835;-66
2023/09/06 10:02:21;;;;;;;;;;;31.70;1.00;;;;;;4931473;28;19926;-66
2023/09/06 10:04:47;;;;;;;;;;;31.70;1.00;;;;;;4928588;28;19930;-66
2023/09/06 10:07:14;;;;;;;;;;;31.60;1.00;;;;;;4930915;28;19926;-66
2023/09/06 10:09:40;;;;;;;;;;;31.60;1.00;;;;;;4931392;28;19925;-67
2023/09/06 10:12:11;;;;;;;;;;;31.70;1.00;;;;;;4931077;28;20038;-66
2023/09/06 10:14:40;;;;;;;;;;;31.60;1.00;;;;;;4934525;28;19973;-66
2023/09/06 10:17:06;;;;;;;;;;;31.60;1.00;;;;;;4932066;28;19922;-66
2023/09/06 10:19:31;;;;;;;;;;;31.70;1.00;;;;;;4937443;28;20475;-67
2023/09/06 10:21:59;;;;;;;;;;;31.60;1.00;;;;;;4934024;28;19926;-67
2023/09/06 10:24:24;;;;;;;;;;;31.60;1.00;;;;;;4933932;28;19926;-67
2023/09/06 10:26:53;;;;;;;;;;;32.20;1.00;;;;;;4932164;28;19922;-67
2023/09/06 10:29:22;;;;;;;;;;;32.40;1.00;;;;;;4932935;28;19927;-67
2023/09/06 10:31:49;;;;;;;;;;;32.40;1.00;;;;;;4933310;28;19973;-67
2023/09/06 10:34:15;;;;;;;;;;;32.30;1.00;;;;;;4932469;28;19933;-67
2023/09/06 10:36:54;;;;;;;;;;;32.30;1.00;;;;;;4932796;28;20396;-66
2023/09/06 10:39:25;;;;;;;;;;;32.40;1.00;;;;;;4938964;28;19926;-67
2023/09/06 10:42:13;;;;;;;;;;;32.50;1.00;;;;;;4951249;28;19988;-67
2023/09/06 10:44:54;;;;;;;;;;;32.40;1.00;;;;;;4933624;28;20234;-66
2023/09/06 10:47:24;;;;;;;;;;;32.30;1.00;;;;;;4917456;28;19922;-65
2023/09/06 10:50:08;;;;;;;;;;;32.40;1.00;;;;;;4934240;28;20021;-67
2023/09/06 10:52:54;;;;;;;;;;;32.80;1.00;;;;;;4932007;28;20567;-66
2023/09/06 10:55:24;;;;;;;;;;;32.90;1.00;;;;;;4932565;28;19918;-67
2023/09/06 10:57:56;;;;;;;;;;;33.10;1.00;;;;;;4915891;28;19923;-66
2023/09/06 11:00:25;;;;;;;;;;;33.30;1.00;;;;;;4936307;28;19922;-67
2023/09/06 11:03:13;;;;;;;;;;;32.80;1.00;;;;;;4937077;28;19926;-67
2023/09/06 11:05:39;;;;;;;;;;;32.70;1.00;;;;;;4936511;28;20021;-66
2023/09/06 11:08:06;;;;;;;;;;;32.60;1.00;;;;;;4955666;28;20353;-66
2023/09/06 11:10:32;;;;;;;;;;;32.20;1.00;;;;;;4919471;28;20245;-66
2023/09/06 11:13:09;;;;;;;;;;;31.80;1.00;;;;;;4919467;28;20356;-66
2023/09/06 11:15:35;;;;;;;;;;;31.90;1.00;;;;;;4950207;28;20421;-67
2023/09/06 11:18:02;;;;;;;;;;;32.20;1.00;;;;;;4936713;28;19923;-66
2023/09/06 11:20:29;;;;;;;;;;;32.20;1.00;;;;;;4918948;28;19926;-67
2023/09/06 11:22:56;;;;;;;;;;;32.30;1.00;;;;;;4919060;28;20289;-67
2023/09/06 11:25:23;;;;;;;;;;;32.20;1.00;;;;;;4921715;28;19933;-67
2023/09/06 11:27:49;;;;;;;;;;;32.00;1.00;;;;;;4936197;28;19922;-67
2023/09/06 11:30:18;;;;;;;;;;;32.10;1.00;;;;;;4918752;28;20393;-66
2023/09/06 11:33:07;;;;;;;;;;;32.40;1.00;;;;;;4935017;28;19976;-67
2023/09/06 11:35:34;;;;;;;;;;;32.50;1.00;;;;;;4936617;28;20021;-67
2023/09/06 11:38:00;;;;;;;;;;;32.30;1.00;;;;;;4935270;28;19997;-66
2023/09/06 11:40:28;;;;;;;;;;;32.50;1.00;;;;;;4935078;28;19923;-67
2023/09/06 11:42:56;;;;;;;;;;;32.50;1.00;;;;;;4938481;28;19979;-66
2023/09/06 11:45:22;;;;;;;;;;;32.60;1.00;;;;;;4949978;28;19933;-66
2023/09/06 11:47:48;;;;;;;;;;;32.60;1.00;;;;;;4936143;28;20048;-66
2023/09/06 11:50:18;;;;;;;;;;;32.30;1.00;;;;;;4918383;28;19926;-67
2023/09/06 11:52:48;;;;;;;;;;;32.40;1.00;;;;;;4953173;28;19929;-67
2023/09/06 11:55:14;;;;;;;;;;;32.20;1.00;;;;;;4917667;28;19980;-67
2023/09/06 11:57:46;;;;;;;;;;;32.40;1.00;;;;;;4934516;28;19922;-67
2023/09/06 12:00:27;;;;;;;;;;;32.50;1.00;;;;;;4921500;28;19930;-66
2023/09/06 12:02:53;;;;;;;;;;;32.40;1.00;;;;;;4934991;28;19934;-66
2023/09/06 12:05:23;;;;;;;;;;;32.10;1.00;;;;;;4934151;28;20106;-66
2023/09/06 12:07:49;;;;;;;;;;;32.10;1.00;;;;;;4934052;28;19934;-66
2023/09/06 12:10:20;;;;;;;;;;;32.20;1.00;;;;;;4933471;28;19922;-67
2023/09/06 12:12:47;;;;;;;;;;;32.30;1.00;;;;;;4936292;28;20526;-67
2023/09/06 12:15:22;;;;;;;;;;;32.60;1.00;;;;;;4918118;28;20289;-66
2023/09/06 12:17:48;;;;;;;;;;;32.70;1.00;;;;;;4917577;28;20013;-66
2023/09/06 12:20:18;;;;;;;;;;;32.80;1.00;;;;;;4934072;28;20231;-66
2023/09/06 12:22:45;;;;;;;;;;;32.80;1.00;;;;;;4934361;28;19930;-66
2023/09/06 12:25:11;;;;;;;;;;;33.10;1.00;;;;;;4933728;28;19926;-67
2023/09/06 12:27:37;;;;;;;;;;;33.30;1.00;;;;;;4935230;28;20004;-66
2023/09/06 12:30:03;;;;;;;;;;;33.50;1.00;;;;;;4934910;28;20361;-66
2023/09/06 12:32:31;;;;;;;;;;;33.90;1.00;;;;;;4936435;28;19926;-66
2023/09/06 12:34:57;;;;;;;;;;;33.80;1.00;;;;;;4950064;28;20326;-67
2023/09/06 12:37:24;;;;;;;;;;;33.80;1.00;;;;;;4933865;28;19923;-65
2023/09/06 12:39:50;;;;;;;;;;;33.80;1.00;;;;;;4935564;28;19929;-67
2023/09/06 12:42:16;;;;;;;;;;;33.90;1.00;;;;;;4917967;28;19930;-67
2023/09/06 12:44:41;;;;;;;;;;;33.90;1.00;;;;;;4934094;28;19995;-66
2023/09/06 12:47:07;;;;;;;;;;;33.70;1.00;;;;;;4936145;28;20325;-68
2023/09/06 12:49:32;;;;;;;;;;;33.50;1.00;;;;;;4936628;28;19922;-65
2023/09/06 12:51:58;;;;;;;;;;;33.60;1.00;;;;;;4917657;28;20432;-66
2023/09/06 12:54:24;;;;;;;;;;;33.90;1.00;;;;;;4934258;28;20025;-66
2023/09/06 12:56:49;;;;;;;;;;;33.80;1.00;;;;;;4933323;28;20083;-67
2023/09/06 12:59:16;;;;;;;;;;;33.80;1.00;;;;;;4933083;28;19929;-67
2023/09/06 13:01:42;;;;;;;;;;;34.00;1.00;;;;;;4934410;28;19984;-66
2023/09/06 13:04:08;;;;;;;;;;;33.80;1.00;;;;;;4932904;28;19926;-67
2023/09/06 13:06:33;;;;;;;;;;;34.10;1.00;;;;;;4917603;28;20208;-66
2023/09/06 13:08:59;;;;;;;;;;;34.00;1.00;;;;;;4934911;28;20449;-66
2023/09/06 13:11:24;;;;;;;;;;;34.00;1.00;;;;;;4933014;28;19926;-66
2023/09/06 13:13:50;;;;;;;;;;;34.20;1.00;;;;;;4919295;28;19929;-66
2023/09/06 13:16:15;;;;;;;;;;;34.20;1.00;;;;;;4919174;28;19997;-67
2023/09/06 13:18:41;;;;;;;;;;;34.60;1.00;;;;;;4933997;28;20142;-67
2023/09/06 13:21:07;;;;;;;;;;;34.90;1.00;;;;;;4932250;28;20392;-66
2023/09/06 13:23:32;;;;;;;;;;;35.00;1.00;;;;;;4931948;28;20253;-66
2023/09/06 13:25:59;;;;;;;;;;;34.80;1.00;;;;;;4916664;28;20659;-67
2023/09/06 13:28:24;;;;;;;;;;;34.70;1.00;;;;;;4933266;28;19942;-67
2023/09/06 13:30:50;;;;;;;;;;;34.80;1.00;;;;;;4933884;28;19927;-67
2023/09/06 13:33:15;;;;;;;;;;;34.60;1.00;;;;;;4937264;28;21119;-66
2023/09/06 13:35:41;;;;;;;;;;;34.30;1.00;;;;;;4936883;28;20143;-66
2023/09/06 13:38:06;;;;;;;;;;;34.30;1.00;;;;;;4934157;28;20101;-65
2023/09/06 13:40:32;;;;;;;;;;;34.40;1.00;;;;;;4932841;28;20097;-66
2023/09/06 13:42:58;;;;;;;;;;;34.10;1.00;;;;;;4935829;28;20083;-67
2023/09/06 13:45:23;;;;;;;;;;;34.10;1.00;;;;;;4932864;28;20133;-66
2023/09/06 13:47:49;;;;;;;;;;;34.10;1.00;;;;;;4934206;28;19929;-67
2023/09/06 13:50:14;;;;;;;;;;;34.10;1.00;;;;;;4916483;28;19922;-67
2023/09/06 13:52:40;;;;;;;;;;;34.10;1.00;;;;;;4932544;28;19930;-67
2023/09/06 13:55:06;;;;;;;;;;;34.20;1.00;;;;;;4934040;28;20377;-66
2023/09/06 13:57:32;;;;;;;;;;;34.20;1.00;;;;;;4932143;28;20373;-67
2023/09/06 13:59:57;;;;;;;;;;;34.10;1.00;;;;;;4934788;28;19984;-66
2023/09/06 14:02:24;;;;;;;;;;;34.30;1.00;;;;;;4934494;28;19922;-66
2023/09/06 14:04:52;;;;;;;;;;;34.40;1.00;;;;;;4951162;28;19922;-66
2023/09/06 14:07:18;;;;;;;;;;;34.40;1.00;;;;;;4931986;28;20452;-67
2023/09/06 14:09:44;;;;;;;;;;;34.50;1.00;;;;;;4932137;28;20138;-67
2023/09/06 14:12:09;;;;;;;;;;;34.50;1.00;;;;;;4934665;28;19937;-67
2023/09/06 14:14:35;;;;;;;;;;;34.40;1.00;;;;;;4931788;28;19922;-67
2023/09/06 14:17:00;;;;;;;;;;;34.70;1.00;;;;;;4915613;28;19922;-67
2023/09/06 14:19:27;;;;;;;;;;;34.90;1.00;;;;;;4933981;28;19992;-67
2023/09/06 14:21:53;;;;;;;;;;;35.00;1.00;;;;;;4916384;28;20110;-67
2023/09/06 14:24:18;;;;;;;;;;;35.10;1.00;;;;;;4930798;28;20368;-66